Time;durP1;ratioP1;P1;durP2;ratioP2;P2;SDS_P1;SDS_P2;PMS_P1;PMS_P2;Temp;Humidity;BMP_temperature;BMP_pressure;BME280_temperature;BME280_humidity;BME280_pressure;Samples;Min_cycle;Max_cycle;Signal;HPM_P1;HPM_P2
2021/08/16 00:01:30;;;;;;;12.40;6.15;;;;;;;19.92;63.63;99372.72;5019703;27;105832;-65
2021/08/16 00:03:56;;;;;;;9.50;6.15;;;;;;;19.86;63.96;99373.75;5018057;28;106693;-65
2021/08/16 00:06:21;;;;;;;10.20;5.50;;;;;;;19.82;64.20;99361.81;5018495;28;105952;-65
2021/08/16 00:08:46;;;;;;;9.60;5.63;;;;;;;19.80;64.20;99358.50;5019168;28;105852;-64
2021/08/16 00:11:12;;;;;;;9.63;5.70;;;;;;;19.78;64.26;99357.94;5020041;28;105897;-65
2021/08/16 00:13:38;;;;;;;8.85;5.72;;;;;;;19.76;64.53;99357.34;5018932;28;106019;-65
2021/08/16 00:16:05;;;;;;;9.48;6.30;;;;;;;19.79;64.63;99357.69;5018647;28;105969;-65
2021/08/16 00:18:30;;;;;;;11.30;6.05;;;;;;;19.78;64.48;99349.81;5019472;28;106525;-66
2021/08/16 00:20:57;;;;;;;9.48;5.60;;;;;;;19.78;64.57;99342.53;5020254;28;106023;-65
2021/08/16 00:23:23;;;;;;;9.82;5.97;;;;;;;19.79;64.69;99337.94;5018628;28;106497;-67
2021/08/16 00:25:48;;;;;;;9.75;5.85;;;;;;;19.76;64.55;99333.03;5000554;28;106501;-65
2021/08/16 00:28:13;;;;;;;9.98;6.53;;;;;;;19.75;64.64;99339.50;5015833;28;106103;-66
2021/08/16 00:30:39;;;;;;;8.93;5.90;;;;;;;19.72;64.92;99340.81;5022741;28;106163;-66
2021/08/16 00:33:04;;;;;;;10.50;6.22;;;;;;;19.71;65.14;99328.41;5019124;28;107211;-66
2021/08/16 00:35:30;;;;;;;8.52;5.35;;;;;;;19.73;65.05;99333.53;5004867;28;106033;-65
2021/08/16 00:37:55;;;;;;;10.70;5.38;;;;;;;19.73;64.95;99338.94;5027313;28;106080;-65
2021/08/16 00:40:21;;;;;;;9.68;6.38;;;;;;;19.73;65.19;99330.84;5023721;28;106273;-65
2021/08/16 00:42:47;;;;;;;8.10;6.00;;;;;;;19.71;65.21;99331.09;5024088;28;105851;-65
2021/08/16 00:45:13;;;;;;;7.63;5.78;;;;;;;19.70;65.26;99331.34;5020328;28;105869;-65
2021/08/16 00:47:39;;;;;;;10.00;6.22;;;;;;;19.67;65.48;99338.06;5029430;28;105953;-66
2021/08/16 00:50:06;;;;;;;8.77;6.05;;;;;;;19.64;65.36;99327.75;5029772;28;106230;-65
2021/08/16 00:52:32;;;;;;;10.05;5.93;;;;;;;19.56;65.19;99320.91;5022471;28;106501;-65
2021/08/16 00:54:58;;;;;;;9.50;5.82;;;;;;;19.53;65.33;99328.69;5023560;28;107405;-65
2021/08/16 00:57:28;;;;;;;10.25;5.80;;;;;;;19.44;65.53;99321.03;5029873;28;105958;-65
2021/08/16 00:59:53;;;;;;;10.60;5.55;;;;;;;19.40;65.56;99338.78;5028295;28;106418;-65
2021/08/16 01:02:19;;;;;;;10.40;5.80;;;;;;;19.31;65.68;99331.38;5028908;28;105952;-65
2021/08/16 01:04:44;;;;;;;9.25;5.88;;;;;;;19.15;65.78;99314.97;5029020;28;106345;-65
2021/08/16 01:07:09;;;;;;;8.35;5.82;;;;;;;19.07;66.10;99324.31;5029964;28;105986;-65
2021/08/16 01:09:35;;;;;;;10.27;6.35;;;;;;;18.98;66.42;99314.97;5025255;28;106130;-66
2021/08/16 01:12:00;;;;;;;11.07;6.03;;;;;;;18.91;66.44;99322.44;5014394;28;106207;-65
2021/08/16 01:14:26;;;;;;;7.57;5.90;;;;;;;18.82;66.74;99300.44;5008765;28;106039;-65
2021/08/16 01:16:51;;;;;;;11.90;6.18;;;;;;;18.79;66.99;99290.09;5009556;28;106193;-65
2021/08/16 01:19:19;;;;;;;8.80;5.85;;;;;;;18.75;67.35;99295.19;5008974;28;109372;-65
2021/08/16 01:21:44;;;;;;;10.98;6.05;;;;;;;18.71;67.51;99301.31;5016006;28;105873;-65
2021/08/16 01:24:09;;;;;;;13.20;6.40;;;;;;;18.67;67.52;99287.50;5007583;28;106024;-65
2021/08/16 01:26:35;;;;;;;7.75;6.32;;;;;;;18.64;67.72;99301.47;5009675;28;105946;-64
2021/08/16 01:29:14;;;;;;;9.38;6.10;;;;;;;18.61;67.77;99304.66;5008781;28;106338;-65
2021/08/16 01:31:39;;;;;;;9.45;6.07;;;;;;;18.58;68.06;99305.16;5008803;28;105933;-64
2021/08/16 01:34:05;;;;;;;10.43;6.57;;;;;;;18.54;68.06;99304.03;5008617;28;106210;-64
2021/08/16 01:36:30;;;;;;;11.50;6.93;;;;;;;18.50;68.03;99305.56;5009685;28;106291;-64
2021/08/16 01:38:56;;;;;;;9.55;7.13;;;;;;;18.47;68.46;99298.78;5008418;28;105849;-65
2021/08/16 01:41:21;;;;;;;11.18;6.70;;;;;;;18.48;68.49;99300.41;5008752;28;106626;-64
2021/08/16 01:43:46;;;;;;;11.40;6.93;;;;;;;18.50;68.75;99303.69;5019884;28;106010;-64
2021/08/16 01:46:12;;;;;;;8.48;6.30;;;;;;;18.54;68.82;99299.44;5029345;28;105934;-65
2021/08/16 01:48:37;;;;;;;8.18;5.80;;;;;;;18.60;68.95;99292.22;5028498;28;106119;-65
2021/08/16 01:51:02;;;;;;;9.48;6.35;;;;;;;18.68;69.07;99289.13;5028024;28;107389;-64
2021/08/16 01:53:28;;;;;;;9.32;5.72;;;;;;;18.77;68.99;99286.84;5027851;28;105857;-65
2021/08/16 01:55:53;;;;;;;8.23;5.55;;;;;;;18.82;68.94;99278.00;5028785;28;105977;-65
2021/08/16 01:58:18;;;;;;;12.95;6.35;;;;;;;18.86;68.75;99269.19;5028353;28;106250;-65
2021/08/16 02:00:47;;;;;;;10.13;5.88;;;;;;;18.91;68.78;99265.75;5027560;28;105979;-65
2021/08/16 02:03:12;;;;;;;9.25;5.70;;;;;;;18.97;68.71;99261.25;5027943;28;105877;-65
2021/08/16 02:05:37;;;;;;;9.10;6.22;;;;;;;19.00;68.67;99264.28;5028821;28;105984;-66
2021/08/16 02:08:03;;;;;;;11.88;6.43;;;;;;;19.05;68.74;99258.13;5025255;28;106751;-65
2021/08/16 02:10:29;;;;;;;11.27;5.95;;;;;;;19.09;68.69;99257.38;5010137;28;106225;-67
2021/08/16 02:12:54;;;;;;;9.05;5.93;;;;;;;19.13;68.69;99257.69;5007688;28;106536;-67
2021/08/16 02:15:20;;;;;;;8.55;5.45;;;;;;;19.18;68.67;99260.47;5013927;28;106011;-65
2021/08/16 02:17:45;;;;;;;9.77;5.07;;;;;;;19.23;68.93;99252.44;5023200;28;106084;-66
2021/08/16 02:20:11;;;;;;;11.02;6.43;;;;;;;19.30;68.69;99257.66;5027798;28;107700;-65
2021/08/16 02:22:37;;;;;;;11.85;6.65;;;;;;;19.36;68.61;99256.66;5027589;28;106803;-65
2021/08/16 02:25:03;;;;;;;12.05;6.15;;;;;;;19.39;68.59;99252.63;5028578;27;106039;-66
2021/08/16 02:27:29;;;;;;;8.25;6.10;;;;;;;19.42;68.62;99250.25;5022009;28;106275;-68
2021/08/16 02:29:55;;;;;;;12.70;6.35;;;;;;;19.43;68.82;99240.25;5027626;28;105791;-65
2021/08/16 02:32:20;;;;;;;11.70;6.78;;;;;;;19.41;68.81;99243.22;5031033;28;105715;-65
2021/08/16 02:34:45;;;;;;;10.57;6.75;;;;;;;19.40;69.39;99240.78;5031421;28;105834;-65
2021/08/16 02:37:11;;;;;;;14.82;7.00;;;;;;;19.38;69.17;99229.38;5019751;28;106184;-65
2021/08/16 02:39:36;;;;;;;11.38;6.82;;;;;;;19.32;69.47;99225.00;5026532;28;105785;-65
2021/08/16 02:42:02;;;;;;;14.73;6.70;;;;;;;19.28;69.66;99235.47;5030652;28;105807;-66
2021/08/16 02:44:27;;;;;;;16.38;6.38;;;;;;;19.25;69.78;99234.09;5031824;28;106017;-65
2021/08/16 02:46:52;;;;;;;12.40;6.60;;;;;;;19.23;69.94;99235.41;5031355;28;106226;-66
2021/08/16 02:49:18;;;;;;;9.32;7.15;;;;;;;19.20;70.11;99244.81;5031014;28;106747;-66
2021/08/16 02:51:43;;;;;;;14.18;6.15;;;;;;;19.17;70.21;99248.03;5030717;28;106005;-65
2021/08/16 02:54:09;;;;;;;11.57;7.00;;;;;;;19.15;70.51;99244.78;5030560;28;105950;-67
2021/08/16 02:56:34;;;;;;;10.48;6.07;;;;;;;19.13;70.60;99238.00;5031087;28;106100;-66
2021/08/16 02:58:59;;;;;;;10.90;6.63;;;;;;;19.11;70.67;99238.25;5030579;28;106010;-65
2021/08/16 03:01:25;;;;;;;16.58;7.15;;;;;;;19.08;70.58;99238.72;5030656;28;106500;-64
2021/08/16 03:03:50;;;;;;;15.43;7.60;;;;;;;19.05;70.69;99237.34;5012668;28;106195;-66
2021/08/16 03:06:16;;;;;;;16.73;7.70;;;;;;;19.03;71.05;99249.47;5029808;28;105964;-65
2021/08/16 03:08:41;;;;;;;13.93;7.35;;;;;;;19.02;71.23;99240.56;5030085;28;105988;-64
2021/08/16 03:11:07;;;;;;;15.90;7.50;;;;;;;19.00;71.37;99236.47;5030447;28;105912;-65
2021/08/16 03:13:33;;;;;;;10.25;6.38;;;;;;;18.97;71.51;99237.78;5030488;28;106311;-64
2021/08/16 03:15:59;;;;;;;9.93;6.53;;;;;;;18.94;71.57;99239.13;5030688;27;105905;-65
2021/08/16 03:18:24;;;;;;;10.57;6.80;;;;;;;18.89;71.50;99241.72;5030563;28;106629;-64
2021/08/16 03:20:51;;;;;;;10.80;7.00;;;;;;;18.85;71.55;99228.94;5030185;28;105821;-65
2021/08/16 03:23:17;;;;;;;9.65;7.72;;;;;;;18.83;71.85;99223.78;5030422;28;105748;-65
2021/08/16 03:25:42;;;;;;;13.38;7.50;;;;;;;18.84;72.04;99227.31;5030325;28;106258;-64
2021/08/16 03:28:07;;;;;;;10.73;6.88;;;;;;;18.83;72.19;99229.19;5030144;28;106059;-64
2021/08/16 03:30:33;;;;;;;12.45;7.57;;;;;;;18.84;72.32;99227.31;5029803;28;106111;-64
2021/08/16 03:32:58;;;;;;;11.40;7.45;;;;;;;18.85;72.35;99234.34;5030725;28;106116;-64
2021/08/16 03:35:24;;;;;;;11.38;7.10;;;;;;;18.84;72.53;99233.53;5030257;28;106189;-66
2021/08/16 03:37:49;;;;;;;11.85;7.30;;;;;;;18.85;72.55;99232.47;5030187;28;106085;-65
2021/08/16 03:40:15;;;;;;;12.90;7.10;;;;;;;18.87;72.69;99229.53;5029742;28;109237;-63
2021/08/16 03:42:40;;;;;;;9.35;6.05;;;;;;;18.88;72.89;99234.69;5030771;28;106056;-65
2021/08/16 03:45:11;;;;;;;13.25;7.10;;;;;;;18.91;73.06;99223.41;5030184;28;106249;-64
2021/08/16 03:47:37;;;;;;;17.00;8.32;;;;;;;18.94;73.18;99233.72;5030200;28;105833;-66
2021/08/16 03:50:06;;;;;;;18.00;7.72;;;;;;;18.99;73.12;99229.44;5030046;28;106005;-64
2021/08/16 03:52:32;;;;;;;11.32;8.02;;;;;;;19.04;73.21;99224.94;5029614;28;106867;-64
2021/08/16 03:54:58;;;;;;;12.80;7.00;;;;;;;19.09;73.32;99224.16;5029733;28;105920;-64
2021/08/16 03:57:24;;;;;;;14.75;7.25;;;;;;;19.15;73.41;99222.34;5029463;28;105828;-65
2021/08/16 03:59:49;;;;;;;11.60;7.18;;;;;;;19.20;73.36;99223.22;5029092;28;106236;-64
2021/08/16 04:02:14;;;;;;;12.75;8.15;;;;;;;19.24;73.18;99221.66;5030161;28;105995;-66
2021/08/16 04:04:40;;;;;;;12.07;7.30;;;;;;;19.30;73.48;99216.34;5029868;28;106056;-65
2021/08/16 04:07:05;;;;;;;25.30;8.63;;;;;;;19.32;73.35;99216.91;5029049;28;113157;-64
2021/08/16 04:09:30;;;;;;;17.52;7.45;;;;;;;19.33;73.36;99208.56;5029292;28;105909;-65
2021/08/16 04:11:56;;;;;;;19.75;7.15;;;;;;;19.35;73.32;99206.41;5023976;28;106034;-64
2021/08/16 04:14:21;;;;;;;14.70;7.90;;;;;;;19.34;73.10;99209.34;5024899;28;106271;-64
2021/08/16 04:16:46;;;;;;;13.10;6.45;;;;;;;19.32;73.17;99211.50;5012454;28;106039;-63
2021/08/16 04:19:12;;;;;;;14.90;7.20;;;;;;;19.33;73.29;99213.13;5007905;28;105934;-64
2021/08/16 04:21:37;;;;;;;10.05;7.10;;;;;;;19.37;73.31;99215.09;5009901;28;106007;-64
2021/08/16 04:24:03;;;;;;;14.60;6.35;;;;;;;19.41;73.14;99210.81;5018506;28;106278;-64
2021/08/16 04:26:28;;;;;;;10.95;6.53;;;;;;;19.45;72.93;99217.34;5027895;28;106075;-64
2021/08/16 04:28:53;;;;;;;8.32;6.05;;;;;;;19.48;72.54;99223.28;5010745;28;106867;-64
2021/08/16 04:31:19;;;;;;;15.98;6.55;;;;;;;19.49;72.12;99217.66;5028783;28;105863;-64
2021/08/16 04:33:44;;;;;;;8.85;5.90;;;;;;;19.51;72.18;99223.59;5029050;28;106205;-64
2021/08/16 04:36:09;;;;;;;9.50;5.40;;;;;;;19.53;71.93;99226.88;5029122;28;106231;-64
2021/08/16 04:38:35;;;;;;;10.43;5.45;;;;;;;19.55;71.77;99227.44;5028483;28;106031;-64
2021/08/16 04:41:00;;;;;;;8.07;5.93;;;;;;;19.57;71.76;99230.72;5028702;28;105906;-64
2021/08/16 04:43:26;;;;;;;9.07;6.70;;;;;;;19.64;71.65;99229.69;5028790;28;105873;-64
2021/08/16 04:45:51;;;;;;;10.45;6.93;;;;;;;19.61;71.25;99234.53;5028929;28;106068;-64
2021/08/16 04:48:17;;;;;;;14.25;7.18;;;;;;;19.54;71.12;99233.91;5028163;27;107219;-64
2021/08/16 04:50:42;;;;;;;10.63;6.57;;;;;;;19.48;71.17;99232.22;5029683;28;106009;-63
2021/08/16 04:53:07;;;;;;;13.85;8.43;;;;;;;19.43;71.19;99243.75;5028364;28;106309;-63
2021/08/16 04:55:33;;;;;;;13.25;7.03;;;;;;;19.44;71.37;99247.31;5029040;28;105913;-64
2021/08/16 04:57:58;;;;;;;12.13;6.82;;;;;;;19.48;71.45;99245.72;5028777;28;105881;-64
2021/08/16 05:00:26;;;;;;;15.80;7.60;;;;;;;19.52;71.53;99249.56;5029376;28;105972;-63
2021/08/16 05:02:53;;;;;;;9.73;6.32;;;;;;;19.59;71.56;99254.78;5028134;28;106382;-63
2021/08/16 05:05:19;;;;;;;8.40;6.15;;;;;;;19.62;71.15;99248.84;5027186;28;106083;-63
2021/08/16 05:07:50;;;;;;;13.82;6.90;;;;;;;19.67;71.22;99257.03;5026621;28;106016;-63
2021/08/16 05:10:16;;;;;;;9.02;6.20;;;;;;;19.74;70.91;99264.94;5029104;28;106118;-64
2021/08/16 05:12:41;;;;;;;11.88;6.32;;;;;;;19.77;71.10;99272.53;5028942;28;106164;-63
2021/08/16 05:15:07;;;;;;;9.75;6.90;;;;;;;19.86;70.76;99271.03;5026530;28;106075;-64
2021/08/16 05:17:33;;;;;;;13.63;6.07;;;;;;;19.97;70.74;99260.31;5015373;28;107228;-64
2021/08/16 05:20:00;;;;;;;10.73;6.32;;;;;;;20.15;71.04;99261.84;5024360;28;106823;-63
2021/08/16 05:22:26;;;;;;;8.95;6.18;;;;;;;20.35;70.94;99266.63;5028162;28;106001;-63
2021/08/16 05:24:52;;;;;;;8.48;5.93;;;;;;;20.55;70.60;99271.41;5027951;28;105998;-64
2021/08/16 05:27:17;;;;;;;10.85;6.10;;;;;;;20.76;70.37;99265.09;5027060;28;106206;-64
2021/08/16 05:29:42;;;;;;;11.55;6.05;;;;;;;20.99;69.91;99276.59;5016708;28;106158;-66
2021/08/16 05:32:09;;;;;;;9.48;6.32;;;;;;;21.27;69.78;99277.31;5016206;28;106169;-63
2021/08/16 05:34:34;;;;;;;10.38;6.10;;;;;;;21.49;69.35;99274.41;5009442;28;105808;-65
2021/08/16 05:37:00;;;;;;;11.50;6.60;;;;;;;21.73;68.94;99280.19;5007920;28;105999;-64
2021/08/16 05:39:25;;;;;;;13.35;6.28;;;;;;;21.95;68.42;99282.72;5008483;28;105828;-64
2021/08/16 05:41:50;;;;;;;10.18;6.47;;;;;;;22.23;67.95;99288.72;5007432;28;106378;-64
2021/08/16 05:44:16;;;;;;;7.35;5.47;;;;;;;22.46;67.68;99292.03;5007906;28;106578;-64
2021/08/16 05:46:41;;;;;;;7.72;5.63;;;;;;;22.75;67.11;99286.84;5007709;28;106072;-65
2021/08/16 05:49:07;;;;;;;10.10;5.78;;;;;;;22.96;66.29;99289.53;5008941;28;106262;-64
2021/08/16 05:51:32;;;;;;;9.10;5.07;;;;;;;23.17;65.94;99289.53;5007818;28;105922;-64
2021/08/16 05:53:57;;;;;;;10.88;5.60;;;;;;;23.33;64.68;99293.81;5007774;28;106663;-67
2021/08/16 05:56:23;;;;;;;8.57;5.45;;;;;;;23.41;63.92;99292.44;5007269;28;106478;-62
2021/08/16 05:58:48;;;;;;;9.50;5.55;;;;;;;23.58;64.39;99286.66;5008160;28;105941;-64
2021/08/16 06:01:13;;;;;;;12.50;5.85;;;;;;;23.83;64.12;99286.53;5009693;28;106563;-63
2021/08/16 06:03:39;;;;;;;14.15;6.22;;;;;;;24.03;63.57;99292.16;5010646;28;106383;-63
2021/08/16 06:06:04;;;;;;;9.15;5.43;;;;;;;24.24;63.07;99293.66;5011006;28;106055;-62
2021/08/16 06:08:29;;;;;;;14.52;5.85;;;;;;;24.38;62.45;99285.66;5011561;28;106031;-62
2021/08/16 06:10:54;;;;;;;9.68;5.20;;;;;;;24.50;61.88;99290.75;5011305;28;106185;-63
2021/08/16 06:13:20;;;;;;;12.65;5.55;;;;;;;24.59;61.26;99280.88;5010355;28;106820;-65
2021/08/16 06:15:45;;;;;;;9.25;4.50;;;;;;;24.67;61.18;99285.75;5010810;28;106153;-64
2021/08/16 06:18:10;;;;;;;11.52;5.30;;;;;;;24.67;60.59;99282.19;5011737;28;105876;-67
2021/08/16 06:20:36;;;;;;;9.35;4.70;;;;;;;24.71;60.34;99288.69;5010824;28;105956;-67
2021/08/16 06:23:01;;;;;;;8.25;5.00;;;;;;;24.78;60.17;99288.34;5010554;28;106750;-63
2021/08/16 06:25:27;;;;;;;14.85;5.47;;;;;;;24.85;59.28;99288.84;5010794;28;106043;-65
2021/08/16 06:27:52;;;;;;;10.65;5.22;;;;;;;24.87;59.26;99291.28;5011324;28;106108;-65
2021/08/16 06:30:17;;;;;;;10.30;5.40;;;;;;;24.98;59.37;99288.16;5010661;28;105937;-66
2021/08/16 06:32:45;;;;;;;13.30;6.03;;;;;;;25.20;59.06;99286.03;5010839;28;105943;-64
2021/08/16 06:35:13;;;;;;;12.73;5.25;;;;;;;25.33;58.07;99280.72;4990720;28;106541;-62
2021/08/16 06:37:39;;;;;;;13.02;6.28;;;;;;;25.30;57.77;99277.72;5010900;28;106093;-62
2021/08/16 06:40:06;;;;;;;23.23;13.63;;;;;;;25.42;57.65;99286.34;5009046;28;106232;-62
2021/08/16 06:42:31;;;;;;;26.17;16.58;;;;;;;25.62;57.35;99290.75;5010254;28;105940;-64
2021/08/16 06:44:57;;;;;;;17.75;7.00;;;;;;;25.76;56.82;99290.03;5009991;28;106553;-63
2021/08/16 06:47:22;;;;;;;16.98;7.00;;;;;;;25.94;56.45;99294.66;5011472;28;105870;-62
2021/08/16 06:49:48;;;;;;;10.52;6.38;;;;;;;26.05;55.38;99294.56;5010851;28;106221;-64
2021/08/16 06:52:14;;;;;;;9.05;4.60;;;;;;;26.25;55.01;99294.25;5010208;28;106385;-63
2021/08/16 06:54:40;;;;;;;8.35;3.88;;;;;;;26.43;54.52;99297.25;5009616;28;105873;-63
2021/08/16 06:57:05;;;;;;;6.97;4.03;;;;;;;26.60;53.98;99294.78;5011251;28;105826;-63
2021/08/16 06:59:34;;;;;;;10.80;4.20;;;;;;;26.73;53.00;99295.16;5010629;28;106597;-63
2021/08/16 07:01:59;;;;;;;10.85;4.25;;;;;;;26.87;52.46;99301.44;5010603;28;105963;-62
2021/08/16 07:04:25;;;;;;;7.95;3.83;;;;;;;27.03;51.86;99302.00;5010352;28;106601;-62
2021/08/16 07:06:50;;;;;;;7.32;4.20;;;;;;;26.91;50.44;99305.19;5009933;28;106048;-64
2021/08/16 07:09:15;;;;;;;8.45;4.05;;;;;;;26.89;50.10;99307.44;5010210;28;106193;-62
2021/08/16 07:11:41;;;;;;;12.07;3.70;;;;;;;26.98;49.76;99305.66;5009319;28;106378;-65
2021/08/16 07:14:06;;;;;;;7.25;3.72;;;;;;;27.24;49.53;99305.13;5009913;28;106004;-63
2021/08/16 07:16:31;;;;;;;7.10;3.92;;;;;;;27.41;47.89;99306.50;5010185;28;106411;-65
2021/08/16 07:18:57;;;;;;;8.60;3.88;;;;;;;27.46;47.44;99303.66;4991330;28;107711;-66
2021/08/16 07:21:22;;;;;;;8.18;3.83;;;;;;;27.66;47.19;99300.50;5009221;28;105907;-66
2021/08/16 07:23:47;;;;;;;8.77;3.63;;;;;;;27.82;46.95;99302.91;5009265;28;105959;-66
2021/08/16 07:26:13;;;;;;;7.70;3.80;;;;;;;28.01;46.94;99305.53;5010171;28;105988;-65
2021/08/16 07:28:38;;;;;;;7.93;3.92;;;;;;;28.33;46.15;99312.72;5008679;28;106211;-64
2021/08/16 07:31:05;;;;;;;8.73;3.58;;;;;;;28.53;45.57;99316.09;5008436;28;105987;-64
2021/08/16 07:33:30;;;;;;;6.28;4.05;;;;;;;28.64;44.68;99314.75;5008952;28;106097;-65
2021/08/16 07:35:56;;;;;;;12.60;4.22;;;;;;;28.58;43.69;99317.88;5009670;28;105753;-66
2021/08/16 07:38:21;;;;;;;10.18;4.78;;;;;;;28.57;43.58;99310.78;5008538;28;106122;-68
2021/08/16 07:40:46;;;;;;;7.57;3.85;;;;;;;28.66;43.14;99303.47;5008664;28;106107;-66
2021/08/16 07:43:13;;;;;;;6.18;3.53;;;;;;;28.80;42.50;99315.16;5008722;28;106675;-66
2021/08/16 07:45:38;;;;;;;9.05;4.47;;;;;;;28.62;41.55;99311.47;5008531;28;106147;-65
2021/08/16 07:48:04;;;;;;;7.25;4.40;;;;;;;28.52;41.97;99317.22;5008894;28;106159;-64
2021/08/16 07:50:31;;;;;;;7.03;4.07;;;;;;;28.51;42.34;99302.72;5008794;28;105887;-66
2021/08/16 07:52:58;;;;;;;7.30;3.55;;;;;;;28.56;41.99;99314.66;5007571;28;106087;-66
2021/08/16 07:55:24;;;;;;;8.63;3.58;;;;;;;28.70;41.56;99304.47;5009606;28;106075;-65
2021/08/16 07:57:49;;;;;;;6.82;4.35;;;;;;;28.71;41.18;99308.81;5008933;28;106243;-65
2021/08/16 08:00:15;;;;;;;9.43;4.18;;;;;;;28.86;40.60;99324.06;5008066;28;107480;-70
2021/08/16 08:02:47;;;;;;;6.50;4.05;;;;;;;28.81;40.09;99325.00;5009283;28;105895;-74
2021/08/16 08:05:16;;;;;;;9.63;4.28;;;;;;;28.73;40.08;99320.25;5009832;28;106097;-67
2021/08/16 08:07:41;;;;;;;12.32;3.88;;;;;;;28.97;40.26;99330.09;5008379;28;106276;-74
2021/08/16 08:10:08;;;;;;;9.23;4.22;;;;;;;29.50;40.06;99325.69;5007760;28;106094;-69
2021/08/16 08:12:34;;;;;;;5.65;3.40;;;;;;;30.38;39.02;99310.13;5009090;28;106135;-67
2021/08/16 08:15:00;;;;;;;9.35;4.03;;;;;;;30.91;36.63;99316.38;5009926;28;106254;-67
2021/08/16 08:17:25;;;;;;;6.45;3.78;;;;;;;30.89;36.13;99324.13;5009556;28;105980;-69
2021/08/16 08:19:53;;;;;;;6.20;3.00;;;;;;;31.11;35.51;99325.06;5009052;28;106083;-67
2021/08/16 08:22:19;;;;;;;4.82;2.65;;;;;;;31.06;34.46;99323.31;5007277;28;106197;-70
2021/08/16 08:24:44;;;;;;;5.82;2.83;;;;;;;31.13;34.27;99325.56;5007377;28;106058;-67
2021/08/16 08:27:12;;;;;;;7.20;3.58;;;;;;;31.70;33.86;99325.13;5007924;28;106024;-67
2021/08/16 08:29:37;;;;;;;7.60;2.78;;;;;;;32.36;32.69;99320.13;5007843;28;105957;-66
2021/08/16 08:32:03;;;;;;;4.47;2.60;;;;;;;33.00;31.75;99320.81;5008163;28;106456;-67
2021/08/16 08:34:28;;;;;;;8.00;2.92;;;;;;;33.26;30.70;99317.75;5009101;28;106021;-68
2021/08/16 08:36:54;;;;;;;4.68;2.20;;;;;;;33.44;29.94;99325.81;5008476;28;106537;-67
2021/08/16 08:39:19;;;;;;;4.18;2.30;;;;;;;33.32;29.66;99327.41;5016090;28;106167;-66
2021/08/16 08:41:46;;;;;;;4.55;2.60;;;;;;;32.94;29.57;99314.69;5028767;28;106406;-68
2021/08/16 08:44:13;;;;;;;5.13;2.60;;;;;;;32.96;29.21;99317.09;5029086;28;105982;-67
2021/08/16 08:46:41;;;;;;;4.20;2.60;;;;;;;33.51;28.72;99315.00;5028759;28;106173;-69
2021/08/16 08:49:08;;;;;;;5.10;2.40;;;;;;;33.58;28.13;99309.69;5020862;28;106027;-64
2021/08/16 08:51:37;;;;;;;4.75;2.30;;;;;;;33.73;27.53;99310.94;5008404;28;105935;-68
2021/08/16 08:54:04;;;;;;;5.43;2.10;;;;;;;33.57;27.72;99310.84;5009410;28;106438;-68
2021/08/16 08:56:30;;;;;;;4.13;2.28;;;;;;;33.68;27.46;99306.47;5008685;28;106206;-64
2021/08/16 08:58:55;;;;;;;6.32;2.63;;;;;;;34.18;27.23;99309.94;5008490;28;106038;-69
2021/08/16 09:01:21;;;;;;;4.82;2.20;;;;;;;34.97;26.19;99305.78;5008336;28;106107;-69
2021/08/16 09:03:48;;;;;;;5.47;2.35;;;;;;;37.00;24.32;99302.59;5008534;28;106052;-67
2021/08/16 09:06:16;;;;;;;4.85;2.80;;;;;;;39.62;21.71;99306.91;5007716;28;106250;-66
2021/08/16 09:08:43;;;;;;;3.35;2.30;;;;;;;42.35;18.38;99305.50;5007648;28;105920;-68
2021/08/16 09:11:10;;;;;;;6.20;2.65;;;;;;;44.64;16.62;99300.00;5007635;28;106383;-65
2021/08/16 09:13:35;;;;;;;3.90;2.10;;;;;;;46.40;14.69;99307.22;5008624;28;105813;-64
2021/08/16 09:16:08;;;;;;;4.45;2.05;;;;;;;46.65;14.41;99293.81;5008286;28;105897;-67
2021/08/16 09:18:34;;;;;;;6.38;2.30;;;;;;;46.68;14.06;99287.28;5008026;28;105929;-67
2021/08/16 09:21:00;;;;;;;3.45;2.30;;;;;;;45.06;14.60;99297.75;5007956;28;106001;-68
2021/08/16 09:23:25;;;;;;;4.88;2.50;;;;;;;42.27;16.52;99289.97;5008353;28;105994;-69
2021/08/16 09:25:56;;;;;;;2.92;1.92;;;;;;;39.65;18.53;99299.78;5008289;28;106182;-66
2021/08/16 09:28:32;;;;;;;6.07;2.33;;;;;;;40.36;18.55;99287.34;5008093;28;107245;-67
2021/08/16 09:31:18;;;;;;;4.13;2.40;;;;;;;43.27;16.40;99282.03;5007752;28;106290;-68
2021/08/16 09:33:52;;;;;;;10.30;2.60;;;;;;;45.27;14.16;99293.75;5008877;28;105925;-66
2021/08/16 09:36:18;;;;;;;4.63;2.10;;;;;;;45.72;13.28;99292.53;5007599;28;106315;-66
2021/08/16 09:38:43;;;;;;;6.28;1.90;;;;;;;45.18;13.91;99293.56;5006639;28;106056;-68
2021/08/16 09:41:26;;;;;;;5.97;2.22;;;;;;;45.83;13.71;99286.69;5007732;28;106221;-67
2021/08/16 09:44:05;;;;;;;4.82;1.90;;;;;;;46.68;12.82;99276.78;5008448;28;106246;-68
2021/08/16 09:46:30;;;;;;;3.15;1.92;;;;;;;47.23;12.14;99279.03;4989360;28;106239;-68
2021/08/16 09:49:02;;;;;;;3.40;2.05;;;;;;;45.73;13.22;99271.63;5007829;28;105983;-67
2021/08/16 09:51:27;;;;;;;6.93;2.65;;;;;;;44.72;14.16;99281.84;5006996;28;106015;-67
2021/08/16 09:53:53;;;;;;;5.85;2.17;;;;;;;44.34;14.48;99275.59;5008733;28;106391;-65
2021/08/16 09:56:19;;;;;;;7.82;2.53;;;;;;;44.13;14.71;99277.47;5006989;28;106445;-67
2021/08/16 09:58:46;;;;;;;5.85;2.25;;;;;;;43.69;15.17;99268.78;5006425;28;105882;-69
2021/08/16 10:01:11;;;;;;;4.00;1.92;;;;;;;42.26;16.14;99271.56;5007662;28;105876;-67
2021/08/16 10:03:37;;;;;;;5.45;2.40;;;;;;;40.69;17.56;99266.66;5008452;28;105866;-70
2021/08/16 10:06:03;;;;;;;6.97;2.50;;;;;;;40.18;18.16;99264.97;5008087;28;106188;-70
2021/08/16 10:08:29;;;;;;;3.65;2.30;;;;;;;40.25;18.22;99264.97;5007241;28;105956;-70
2021/08/16 10:10:56;;;;;;;4.05;1.92;;;;;;;40.37;18.05;99278.56;5006644;28;105968;-65
2021/08/16 10:13:23;;;;;;;4.03;1.90;;;;;;;39.49;17.87;99263.81;5008014;28;106007;-70
2021/08/16 10:15:56;;;;;;;5.60;2.22;;;;;;;37.96;19.18;99246.09;5007675;28;106126;-68
2021/08/16 10:18:28;;;;;;;5.30;2.50;;;;;;;37.19;20.61;99262.84;5007004;28;106800;-69
2021/08/16 10:20:54;;;;;;;5.15;2.58;;;;;;;36.25;22.03;99258.41;5006641;28;106134;-68
2021/08/16 10:23:22;;;;;;;5.38;2.60;;;;;;;35.81;23.01;99258.69;5007342;28;106045;-69
2021/08/16 10:25:49;;;;;;;5.53;2.38;;;;;;;35.79;23.43;99234.13;5006687;28;106052;-68
2021/08/16 10:28:34;;;;;;;7.18;2.33;;;;;;;35.90;22.82;99234.38;5006465;28;107172;-69
2021/08/16 10:31:02;;;;;;;6.45;2.95;;;;;;;35.75;22.39;99233.25;5006486;28;106220;-65
2021/08/16 10:33:28;;;;;;;12.73;3.15;;;;;;;35.83;22.18;99226.72;5007799;28;106105;-70
2021/08/16 10:35:55;;;;;;;6.90;2.47;;;;;;;35.98;21.98;99227.00;5007127;28;106050;-66
2021/08/16 10:38:23;;;;;;;7.35;2.35;;;;;;;36.11;21.99;99222.09;4989119;28;106161;-66
2021/08/16 10:40:48;;;;;;;3.97;2.03;;;;;;;36.54;21.83;99222.91;4988825;28;105967;-63
2021/08/16 10:43:15;;;;;;;3.00;1.85;;;;;;;36.99;20.89;99215.78;5008153;28;106439;-65
2021/08/16 10:45:47;;;;;;;3.53;2.08;;;;;;;36.95;20.80;99209.38;5007524;27;106157;-64
2021/08/16 10:48:20;;;;;;;6.20;2.17;;;;;;;37.01;20.71;99213.41;5010122;28;106173;-64
2021/08/16 10:50:45;;;;;;;5.65;2.03;;;;;;;36.75;21.24;99212.19;5009941;28;105928;-67
2021/08/16 10:53:11;;;;;;;4.28;2.35;;;;;;;36.30;21.64;99202.66;4992630;28;106006;-69
2021/08/16 10:55:41;;;;;;;5.72;2.97;;;;;;;36.22;22.40;99212.00;5010537;28;106156;-67
2021/08/16 10:58:08;;;;;;;6.50;2.35;;;;;;;36.83;22.26;99206.78;5010251;28;105910;-70
2021/08/16 11:00:34;;;;;;;5.05;2.55;;;;;;;37.28;21.41;99196.75;5010213;28;105838;-67
2021/08/16 11:02:59;;;;;;;9.43;2.90;;;;;;;37.37;21.62;99202.06;5011080;28;106398;-70
2021/08/16 11:05:33;;;;;;;4.72;2.97;;;;;;;36.59;22.34;99200.41;5010539;28;106110;-71
2021/08/16 11:08:03;;;;;;;5.63;2.90;;;;;;;35.79;23.26;99191.75;5010492;28;105979;-67
2021/08/16 11:10:48;;;;;;;6.05;2.42;;;;;;;35.77;23.72;99197.66;5009562;28;106339;-72
2021/08/16 11:13:20;;;;;;;3.92;2.60;;;;;;;35.49;24.00;99200.66;5010520;28;106003;-73
2021/08/16 11:15:47;;;;;;;3.65;2.35;;;;;;;35.13;24.20;99205.34;5009754;28;106193;-70
2021/08/16 11:18:31;;;;;;;5.22;2.90;;;;;;;34.63;25.25;99186.34;5009976;28;106698;-69